createdAt,value
2022-11-24T00:01:30.331Z,98917.31
2022-11-24T00:04:03.343Z,98925.38
2022-11-24T00:06:32.781Z,98923.13
2022-11-24T00:09:01.434Z,98923.63
2022-11-24T00:11:32.414Z,98928.59
2022-11-24T00:14:00.108Z,98925.31
2022-11-24T00:16:35.083Z,98930.59
2022-11-24T00:19:04.533Z,98928.22
2022-11-24T00:21:35.040Z,98926.13
2022-11-24T00:24:06.496Z,98934.88
2022-11-24T00:26:40.919Z,98935.38
2022-11-24T00:29:11.250Z,98926.13
2022-11-24T00:31:40.847Z,98943.69
2022-11-24T00:34:12.896Z,98938.63
2022-11-24T00:36:43.218Z,98937.16
2022-11-24T00:39:12.833Z,98942.84
2022-11-24T00:41:41.677Z,98935.38
2022-11-24T00:44:09.177Z,98941.31
2022-11-24T00:46:37.565Z,98958.16
2022-11-24T00:49:06.289Z,98949.84
2022-11-24T00:51:34.079Z,98953.00
2022-11-24T00:54:02.430Z,98952.47
2022-11-24T00:56:30.656Z,98950.44
2022-11-24T00:58:58.006Z,98954.50
2022-11-24T01:01:32.625Z,98955.19
2022-11-24T01:04:02.268Z,98958.53
2022-11-24T01:06:33.444Z,98966.50
2022-11-24T01:09:02.049Z,98971.91
2022-11-24T01:11:51.572Z,98960.19
2022-11-24T01:14:20.227Z,98969.16
2022-11-24T01:16:47.849Z,98959.34
2022-11-24T01:19:15.598Z,98953.81
2022-11-24T01:21:43.496Z,98963.34
2022-11-24T01:24:13.032Z,98966.13
2022-11-24T01:26:40.916Z,98972.28
2022-11-24T01:29:10.691Z,98968.09
2022-11-24T01:31:39.292Z,98972.59
2022-11-24T01:34:11.399Z,98972.41
2022-11-24T01:36:39.546Z,98979.69
2022-11-24T01:39:07.932Z,98969.16
2022-11-24T01:41:39.380Z,98978.22
2022-11-24T01:44:29.660Z,98977.38
2022-11-24T01:47:30.411Z,98982.66
2022-11-24T01:50:17.009Z,98970.94
2022-11-24T01:52:50.932Z,98971.78
2022-11-24T01:55:22.143Z,98977.75
2022-11-24T01:57:59.897Z,98969.56
2022-11-24T02:00:27.692Z,98973.44
2022-11-24T02:02:55.653Z,98970.88
2022-11-24T02:05:46.327Z,98981.00
2022-11-24T02:08:29.231Z,98970.41
2022-11-24T02:10:57.063Z,98972.44
2022-11-24T02:13:25.280Z,98968.34
2022-11-24T02:15:54.280Z,98968.72
2022-11-24T02:18:21.929Z,98973.69
2022-11-24T02:20:49.341Z,98987.38
2022-11-24T02:23:27.795Z,98975.38
2022-11-24T02:25:55.001Z,98978.72
2022-11-24T02:28:24.648Z,98984.00
2022-11-24T02:30:53.018Z,98981.69
2022-11-24T02:33:25.329Z,98986.06
2022-11-24T02:35:52.860Z,98976.00
2022-11-24T02:38:32.750Z,98986.81
2022-11-24T02:41:07.929Z,98985.13
2022-11-24T02:43:41.179Z,98981.72
2022-11-24T02:46:10.997Z,98988.22
2022-11-24T02:48:40.679Z,98988.41
2022-11-24T02:51:07.833Z,98989.75
2022-11-24T02:53:35.528Z,98991.31
2022-11-24T02:56:02.766Z,98984.78
2022-11-24T02:58:30.278Z,98991.78
2022-11-24T03:00:59.835Z,98989.28
2022-11-24T03:03:28.054Z,98993.78
2022-11-24T03:05:55.943Z,98978.84
2022-11-24T03:08:26.172Z,98986.38
2022-11-24T03:10:54.485Z,98984.31
2022-11-24T03:13:22.092Z,98980.59
2022-11-24T03:15:49.352Z,98992.16
2022-11-24T03:18:18.049Z,99001.66
2022-11-24T03:20:45.364Z,98992.78
2022-11-24T03:23:12.930Z,98999.50
2022-11-24T03:25:40.571Z,98991.09
2022-11-24T03:28:08.169Z,98993.78
2022-11-24T03:30:35.388Z,98986.81
2022-11-24T03:33:05.087Z,98997.63
2022-11-24T03:35:32.257Z,98988.56
2022-11-24T03:37:59.768Z,98982.47
2022-11-24T03:40:27.248Z,98989.75
2022-11-24T03:42:56.029Z,98992.09
2022-11-24T03:45:44.801Z,98989.75
2022-11-24T03:48:10.883Z,98983.69
2022-11-24T03:50:38.159Z,98993.09
2022-11-24T03:53:06.995Z,98994.03
2022-11-24T03:55:34.278Z,99003.09
2022-11-24T03:58:02.206Z,99011.81
2022-11-24T04:00:29.651Z,99016.50
2022-11-24T04:02:58.439Z,99020.31
2022-11-24T04:05:25.647Z,99020.13
2022-11-24T04:07:57.887Z,99022.31
2022-11-24T04:10:25.420Z,99021.81
2022-11-24T04:12:53.028Z,99030.75
2022-11-24T04:15:23.536Z,99027.16
2022-11-24T04:17:51.194Z,99031.28
2022-11-24T04:20:19.068Z,99026.59
2022-11-24T04:22:47.580Z,99035.00
2022-11-24T04:25:19.781Z,99043.31
2022-11-24T04:27:52.328Z,99015.84
2022-11-24T04:30:20.491Z,99044.38
2022-11-24T04:32:48.237Z,99056.44
2022-11-24T04:35:15.717Z,99066.28
2022-11-24T04:37:43.385Z,99049.59
2022-11-24T04:40:11.825Z,99054.41
2022-11-24T04:42:40.153Z,99056.75
2022-11-24T04:45:08.160Z,99054.09
2022-11-24T04:47:35.677Z,99058.44
2022-11-24T04:50:04.976Z,99067.59
2022-11-24T04:52:32.537Z,99066.28
2022-11-24T04:54:59.707Z,99079.78
2022-11-24T04:57:27.763Z,99078.97
2022-11-24T04:59:55.444Z,99081.28
2022-11-24T05:02:24.473Z,99083.66
2022-11-24T05:04:52.240Z,99086.16
2022-11-24T05:07:19.935Z,99085.56
2022-11-24T05:10:08.016Z,99085.38
2022-11-24T05:12:35.746Z,99083.38
2022-11-24T05:15:05.033Z,99093.91
2022-11-24T05:17:35.443Z,99088.19
2022-11-24T05:20:08.111Z,99093.53
2022-11-24T05:22:36.001Z,99089.66
2022-11-24T05:25:03.916Z,99098.31
2022-11-24T05:27:31.446Z,99104.22
2022-11-24T05:30:00.488Z,99109.88
2022-11-24T05:32:32.631Z,99099.56
2022-11-24T05:35:02.237Z,99117.53
2022-11-24T05:37:29.912Z,99116.47
2022-11-24T05:39:58.052Z,99110.19
2022-11-24T05:42:46.268Z,99119.69
2022-11-24T05:45:20.175Z,99127.78
2022-11-24T05:47:51.564Z,99121.16
2022-11-24T05:50:20.911Z,99130.16
2022-11-24T05:52:49.380Z,99123.94
2022-11-24T05:55:19.611Z,99125.63
2022-11-24T05:57:47.373Z,99129.84
2022-11-24T06:00:18.142Z,99135.88
2022-11-24T06:02:46.008Z,99146.59
2022-11-24T06:05:15.888Z,99149.34
2022-11-24T06:07:44.902Z,99136.50
2022-11-24T06:10:16.861Z,99142.97
2022-11-24T06:12:46.126Z,99149.53
2022-11-24T06:15:14.217Z,99158.88
2022-11-24T06:17:42.416Z,99161.84
2022-11-24T06:20:11.495Z,99152.22
2022-11-24T06:22:39.335Z,99173.22
2022-11-24T06:25:06.759Z,99161.66
2022-11-24T06:27:34.391Z,99162.13
2022-11-24T06:30:01.678Z,99163.88
2022-11-24T06:32:31.945Z,99174.53
2022-11-24T06:35:00.177Z,99174.53
2022-11-24T06:37:27.961Z,99169.50
2022-11-24T06:39:55.256Z,99186.47
2022-11-24T06:42:24.025Z,99182.75
2022-11-24T06:44:51.330Z,99189.22
2022-11-24T06:47:20.949Z,99195.75
2022-11-24T06:49:50.721Z,99204.28
2022-11-24T06:52:20.486Z,99200.25
2022-11-24T06:54:49.920Z,99219.50
2022-11-24T06:57:18.562Z,99214.25
2022-11-24T06:59:45.907Z,99209.72
2022-11-24T07:02:14.665Z,99217.00
2022-11-24T07:04:43.758Z,99229.38
2022-11-24T07:07:12.928Z,99224.47
2022-11-24T07:09:45.002Z,99232.00
2022-11-24T07:12:12.563Z,99239.34
2022-11-24T07:14:40.018Z,99236.34
2022-11-24T07:17:09.197Z,99236.03
2022-11-24T07:19:36.416Z,99228.31
2022-11-24T07:22:05.016Z,99239.13
2022-11-24T07:24:34.589Z,99239.78
2022-11-24T07:27:02.345Z,99240.97
2022-11-24T07:29:29.765Z,99248.00
2022-11-24T07:32:03.743Z,99253.53
2022-11-24T07:34:33.113Z,99249.78
2022-11-24T07:37:03.707Z,99256.66
2022-11-24T07:39:31.404Z,99263.34
2022-11-24T07:42:00.487Z,99234.59
2022-11-24T07:44:31.549Z,99266.59
2022-11-24T07:47:00.727Z,99264.22
2022-11-24T07:49:29.526Z,99267.63
2022-11-24T07:51:58.947Z,99262.31
2022-11-24T07:54:32.118Z,99275.38
2022-11-24T07:57:04.563Z,99270.34
2022-11-24T07:59:31.908Z,99258.28
2022-11-24T08:02:03.996Z,99269.00
2022-11-24T08:04:34.422Z,99268.66
2022-11-24T08:07:06.780Z,99265.78
2022-11-24T08:09:35.847Z,99266.78
2022-11-24T08:12:06.090Z,99271.84
2022-11-24T08:14:33.844Z,99269.34
2022-11-24T08:17:01.817Z,99281.97
2022-11-24T08:19:32.365Z,99278.22
2022-11-24T08:22:00.139Z,99290.63
2022-11-24T08:24:28.037Z,99298.69
2022-11-24T08:26:55.714Z,99271.22
2022-11-24T08:29:23.121Z,99301.56
2022-11-24T08:31:50.922Z,99305.47
2022-11-24T08:34:18.934Z,99295.75
2022-11-24T08:36:47.690Z,99311.91
2022-11-24T08:39:15.047Z,99305.44
2022-11-24T08:41:42.907Z,99310.72
2022-11-24T08:44:10.893Z,99313.94
2022-11-24T08:46:38.584Z,99314.78
2022-11-24T08:49:07.374Z,99310.06
2022-11-24T08:51:35.085Z,99321.19
2022-11-24T08:54:02.851Z,99315.06
2022-11-24T08:56:32.530Z,99325.69
2022-11-24T08:59:00.780Z,99320.16
2022-11-24T09:01:29.223Z,99320.41
2022-11-24T09:03:58.418Z,99324.03
2022-11-24T09:06:31.047Z,99329.59
2022-11-24T09:08:59.938Z,99324.28
2022-11-24T09:11:27.818Z,99321.69
2022-11-24T09:13:55.755Z,99324.22
2022-11-24T09:16:26.590Z,99305.66
2022-11-24T09:19:00.601Z,99321.06
2022-11-24T09:21:30.200Z,99314.47
2022-11-24T09:24:16.716Z,99322.63
2022-11-24T09:26:47.626Z,99319.19
2022-11-24T09:29:15.574Z,99320.38
2022-11-24T09:31:43.234Z,99312.88
2022-11-24T09:34:13.723Z,99311.59
2022-11-24T09:36:42.141Z,99324.56
2022-11-24T09:39:10.399Z,99327.25
2022-11-24T09:42:03.402Z,99318.88
2022-11-24T09:44:54.971Z,99327.09
2022-11-24T09:47:44.160Z,99323.13
2022-11-24T09:50:22.091Z,99330.03
2022-11-24T09:53:11.074Z,99317.41
2022-11-24T09:55:48.043Z,99320.75
2022-11-24T09:58:31.719Z,99330.69
2022-11-24T10:01:38.241Z,99320.75
2022-11-24T10:04:16.639Z,99325.06
2022-11-24T10:06:49.974Z,99324.31
2022-11-24T10:09:45.423Z,99333.09
2022-11-24T10:12:37.387Z,99321.38
2022-11-24T10:15:27.282Z,99325.81
2022-11-24T10:18:08.367Z,99330.22
2022-11-24T10:20:48.756Z,99320.06
2022-11-24T10:23:53.246Z,99329.47
2022-11-24T10:26:43.746Z,99316.56
2022-11-24T10:29:24.879Z,99322.66
2022-11-24T10:31:55.537Z,99326.22
2022-11-24T10:34:37.498Z,99322.97
2022-11-24T10:37:05.221Z,99335.22
2022-11-24T10:39:39.313Z,99316.03
2022-11-24T10:42:23.889Z,99323.75
2022-11-24T10:45:12.234Z,99323.56
2022-11-24T10:47:42.472Z,99327.84
2022-11-24T10:50:33.404Z,99327.84
2022-11-24T10:53:13.255Z,99324.78
2022-11-24T10:55:56.110Z,99324.66
2022-11-24T10:58:37.983Z,99338.47
2022-11-24T11:01:16.018Z,99318.66
2022-11-24T11:03:47.439Z,99334.69
2022-11-24T11:06:36.385Z,99328.16
2022-11-24T11:09:07.188Z,99332.44
2022-11-24T11:11:36.066Z,99332.06
2022-11-24T11:14:08.359Z,99329.47
2022-11-24T11:16:38.607Z,99339.44
2022-11-24T11:20:00.352Z,99341.28
2022-11-24T11:22:32.338Z,99333.22
2022-11-24T11:25:06.147Z,99348.44
2022-11-24T11:27:33.511Z,99340.38
2022-11-24T11:36:11.399Z,99333.84
2022-11-24T11:38:40.595Z,99334.19
2022-11-24T11:41:21.993Z,99338.41
2022-11-24T11:43:57.299Z,99342.00
2022-11-24T11:46:29.690Z,99342.41
2022-11-24T11:48:57.131Z,99348.56
2022-11-24T11:52:00.137Z,99351.59
2022-11-24T11:54:54.722Z,99318.53
2022-11-24T11:57:43.538Z,99354.91
2022-11-24T12:00:13.468Z,99348.50
2022-11-24T12:03:10.132Z,99351.47
2022-11-24T12:05:50.749Z,99355.91
2022-11-24T12:09:17.994Z,99354.16
2022-11-24T12:11:43.475Z,99346.56
2022-11-24T12:14:17.627Z,99358.34
2022-11-24T12:17:13.991Z,99352.47
2022-11-24T12:19:57.192Z,99358.19
2022-11-24T12:22:40.785Z,99344.06
2022-11-24T12:25:20.219Z,99358.66
2022-11-24T12:28:00.457Z,99363.59
2022-11-24T12:30:41.055Z,99363.34
2022-11-24T12:33:29.748Z,99367.38
2022-11-24T12:36:12.344Z,99369.03
2022-11-24T12:39:14.756Z,99374.88
2022-11-24T12:41:51.231Z,99377.56
2022-11-24T12:44:44.884Z,99385.81
2022-11-24T12:47:21.948Z,99373.72
2022-11-24T12:50:07.729Z,99377.22
2022-11-24T12:52:50.203Z,99363.50
2022-11-24T12:55:23.267Z,99380.84
2022-11-24T12:57:55.945Z,99381.66
2022-11-24T13:00:35.360Z,99373.34
2022-11-24T13:03:41.821Z,99371.38
2022-11-24T13:06:27.854Z,99387.16
2022-11-24T13:08:57.221Z,99383.19
2022-11-24T13:11:34.945Z,99381.66
2022-11-24T13:14:17.915Z,99390.94
2022-11-24T13:19:42.521Z,99387.44
2022-11-24T13:22:15.493Z,99374.31
2022-11-24T13:24:45.038Z,99390.00
2022-11-24T13:27:15.498Z,99393.97
2022-11-24T13:29:43.858Z,99391.19
2022-11-24T13:32:11.918Z,99391.25
2022-11-24T13:34:39.599Z,99393.63
2022-11-24T13:37:31.543Z,99395.56
2022-11-24T13:40:14.256Z,99398.53
2022-11-24T13:43:02.137Z,99401.63
2022-11-24T13:45:38.899Z,99402.94
2022-11-24T13:48:22.305Z,99397.16
2022-11-24T13:50:51.180Z,99404.09
2022-11-24T13:53:36.126Z,99407.69
2022-11-24T13:56:14.267Z,99411.47
2022-11-24T13:58:44.523Z,99418.88
2022-11-24T14:01:28.529Z,99417.78
2022-11-24T14:06:53.403Z,99429.47
2022-11-24T14:09:38.350Z,99435.72
2022-11-24T14:12:16.926Z,99432.31
2022-11-24T14:14:46.793Z,99430.72
2022-11-24T14:17:17.329Z,99441.50
2022-11-24T14:19:48.850Z,99439.53
2022-11-24T14:22:22.695Z,99441.75
2022-11-24T14:24:58.736Z,99453.69
2022-11-24T14:27:35.069Z,99451.03
2022-11-24T14:30:04.097Z,99451.09
2022-11-24T14:32:33.282Z,99447.19
2022-11-24T14:35:02.055Z,99431.19
2022-11-24T14:37:29.758Z,99413.47
2022-11-24T14:39:57.049Z,99446.47
2022-11-24T14:42:27.516Z,99444.19
2022-11-24T14:45:04.006Z,99442.88
2022-11-24T14:47:36.406Z,99447.56
2022-11-24T14:50:23.510Z,99440.53
2022-11-24T14:52:58.997Z,99448.84
2022-11-24T14:55:29.776Z,99446.19
2022-11-24T14:58:00.545Z,99436.78
2022-11-24T15:00:33.458Z,99447.22
2022-11-24T15:03:02.268Z,99448.69
2022-11-24T15:05:53.169Z,99460.22
2022-11-24T15:08:21.752Z,99460.19
2022-11-24T15:10:55.457Z,99461.72
2022-11-24T15:13:25.125Z,99455.22
2022-11-24T15:16:02.040Z,99463.00
2022-11-24T15:18:37.436Z,99455.34
2022-11-24T15:21:05.265Z,99470.69
2022-11-24T15:23:34.164Z,99463.63
2022-11-24T15:26:01.489Z,99470.81
2022-11-24T15:28:31.198Z,99472.78
2022-11-24T15:31:12.845Z,99474.53
2022-11-24T15:33:41.651Z,99474.78
2022-11-24T15:36:14.126Z,99480.03
2022-11-24T15:38:41.664Z,99473.38
2022-11-24T15:41:33.221Z,99471.31
2022-11-24T15:44:01.018Z,99480.50
2022-11-24T15:46:31.104Z,99475.06
2022-11-24T15:49:02.832Z,99478.31
2022-11-24T15:51:31.475Z,99490.72
2022-11-24T15:54:01.608Z,99495.91
2022-11-24T15:56:36.737Z,99493.94
2022-11-24T15:59:05.712Z,99482.50
2022-11-24T16:01:34.417Z,99489.03
2022-11-24T16:04:02.838Z,99483.16
2022-11-24T16:06:30.133Z,99488.91
2022-11-24T16:08:58.294Z,99497.25
2022-11-24T16:11:25.909Z,99503.03
2022-11-24T16:13:54.473Z,99510.97
2022-11-24T16:16:26.335Z,99496.19
2022-11-24T16:18:53.925Z,99515.03
2022-11-24T16:21:22.030Z,99505.88
2022-11-24T16:23:49.731Z,99504.47
2022-11-24T16:26:17.269Z,99513.34
2022-11-24T16:28:45.846Z,99507.56
2022-11-24T16:31:16.300Z,99507.88
2022-11-24T16:33:45.085Z,99516.69
2022-11-24T16:36:16.343Z,99517.06
2022-11-24T16:38:44.624Z,99516.81
2022-11-24T16:41:13.172Z,99514.63
2022-11-24T16:43:40.576Z,99524.31
2022-11-24T16:46:16.181Z,99524.78
2022-11-24T16:48:45.155Z,99516.13
2022-11-24T16:51:14.038Z,99515.91
2022-11-24T16:53:41.649Z,99530.34
2022-11-24T16:56:09.639Z,99524.38
2022-11-24T16:58:38.510Z,99516.91
2022-11-24T17:01:07.390Z,99514.53
2022-11-24T17:03:38.354Z,99503.00
2022-11-24T17:06:10.406Z,99533.44
2022-11-24T17:08:39.645Z,99528.84
2022-11-24T17:11:08.193Z,99528.31
2022-11-24T17:13:35.556Z,99537.38
2022-11-24T17:16:05.662Z,99519.59
2022-11-24T17:18:33.985Z,99539.78
2022-11-24T17:21:07.696Z,99549.47
2022-11-24T17:23:36.664Z,99536.78
2022-11-24T17:26:07.177Z,99544.84
2022-11-24T17:28:35.453Z,99540.69
2022-11-24T17:31:15.730Z,99545.78
2022-11-24T17:33:43.158Z,99540.75
2022-11-24T17:36:10.847Z,99539.81
2022-11-24T17:38:38.188Z,99547.69
2022-11-24T17:41:05.505Z,99543.44
2022-11-24T17:43:33.640Z,99542.44
2022-11-24T17:46:02.725Z,99546.56
2022-11-24T17:48:33.472Z,99545.56
2022-11-24T17:51:13.658Z,99547.97
2022-11-24T17:53:43.058Z,99555.56
2022-11-24T17:56:15.932Z,99551.84
2022-11-24T17:58:43.669Z,99550.25
2022-11-24T18:01:12.938Z,99554.78
2022-11-24T18:03:42.659Z,99555.16
2022-11-24T18:06:18.504Z,99558.75
2022-11-24T18:08:49.175Z,99563.59
2022-11-24T18:11:24.646Z,99554.47
2022-11-24T18:14:02.182Z,99556.44
2022-11-24T18:16:32.299Z,99571.06
2022-11-24T18:19:11.057Z,99561.28
2022-11-24T18:21:50.355Z,99565.72
2022-11-24T18:24:24.205Z,99557.44
2022-11-24T18:26:55.951Z,99564.00
2022-11-24T18:29:25.141Z,99572.59
2022-11-24T18:31:53.594Z,99585.69
2022-11-24T18:34:24.861Z,99577.72
2022-11-24T18:36:52.764Z,99581.22
2022-11-24T18:39:20.363Z,99586.22
2022-11-24T18:41:47.981Z,99601.19
2022-11-24T18:44:16.215Z,99599.09
2022-11-24T18:46:43.452Z,99587.50
2022-11-24T18:49:11.175Z,99590.25
2022-11-24T18:51:38.421Z,99595.09
2022-11-24T18:54:27.446Z,99576.88
2022-11-24T18:56:57.760Z,99603.91
2022-11-24T18:59:29.254Z,99605.22
2022-11-24T19:01:58.120Z,99599.03
2022-11-24T19:04:26.373Z,99617.59
2022-11-24T19:06:53.530Z,99616.75
2022-11-24T19:09:22.861Z,99613.41
2022-11-24T19:11:50.075Z,99615.56
2022-11-24T19:14:19.208Z,99617.59
2022-11-24T19:16:48.400Z,99616.22
2022-11-24T19:19:17.308Z,99617.91
2022-11-24T19:21:45.208Z,99609.72
2022-11-24T19:24:14.878Z,99621.91
2022-11-24T19:26:42.331Z,99615.41
2022-11-24T19:29:10.292Z,99621.03
2022-11-24T19:31:40.969Z,99625.91
2022-11-24T19:34:08.571Z,99621.22
2022-11-24T19:36:37.369Z,99621.91
2022-11-24T19:39:05.336Z,99632.75
2022-11-24T19:41:35.359Z,99644.69
2022-11-24T19:44:03.061Z,99642.31
2022-11-24T19:46:30.670Z,99649.88
2022-11-24T19:49:03.351Z,99646.69
2022-11-24T19:51:32.706Z,99648.97
2022-11-24T19:54:02.941Z,99652.16
2022-11-24T19:56:34.221Z,99635.09
2022-11-24T19:59:04.194Z,99658.84
2022-11-24T20:01:39.844Z,99657.03
2022-11-24T20:04:12.056Z,99663.25
2022-11-24T20:06:44.594Z,99659.44
2022-11-24T20:09:15.658Z,99658.56
2022-11-24T20:11:43.498Z,99662.47
2022-11-24T20:14:13.404Z,99661.78
2022-11-24T20:16:41.052Z,99671.34
2022-11-24T20:19:14.604Z,99671.66
2022-11-24T20:21:46.085Z,99666.44
2022-11-24T20:24:16.607Z,99672.97
2022-11-24T20:26:50.160Z,99671.97
2022-11-24T20:29:18.280Z,99664.94
2022-11-24T20:31:49.930Z,99666.44
2022-11-24T20:34:18.318Z,99675.28
2022-11-24T20:36:46.688Z,99683.94
2022-11-24T20:39:17.959Z,99684.66
2022-11-24T20:41:45.411Z,99679.63
2022-11-24T20:44:16.873Z,99680.31
2022-11-24T20:46:46.968Z,99674.44
2022-11-24T20:49:17.616Z,99692.72
2022-11-24T20:51:47.200Z,99677.97
2022-11-24T20:54:17.070Z,99678.84
2022-11-24T20:56:46.788Z,99683.22
2022-11-24T20:59:18.699Z,99692.09
2022-11-24T21:01:46.944Z,99691.63
2022-11-24T21:04:18.484Z,99690.13
2022-11-24T21:06:46.381Z,99685.75
2022-11-24T21:09:14.225Z,99689.44
2022-11-24T21:11:41.563Z,99692.78
2022-11-24T21:14:09.690Z,99693.66
2022-11-24T21:16:39.473Z,99693.47
2022-11-24T21:19:11.949Z,99702.66
2022-11-24T21:21:42.812Z,99698.34
2022-11-24T21:24:13.469Z,99703.16
2022-11-24T21:26:42.286Z,99713.22
2022-11-24T21:29:12.601Z,99709.34
2022-11-24T21:31:40.411Z,99713.06
2022-11-24T21:34:08.898Z,99689.97
2022-11-24T21:36:40.124Z,99716.75
2022-11-24T21:39:07.709Z,99711.53
2022-11-24T21:41:35.715Z,99725.75
2022-11-24T21:44:03.420Z,99721.59
2022-11-24T21:46:40.559Z,99716.22
2022-11-24T21:49:13.321Z,99713.34
2022-11-24T21:51:41.319Z,99724.41
2022-11-24T21:54:09.209Z,99730.28
2022-11-24T21:56:36.472Z,99718.88
2022-11-24T21:59:04.097Z,99719.53
2022-11-24T22:01:31.610Z,99731.47
2022-11-24T22:04:00.662Z,99734.81
2022-11-24T22:06:28.064Z,99744.34
2022-11-24T22:08:55.724Z,99724.44
2022-11-24T22:11:25.506Z,99737.97
2022-11-24T22:13:53.826Z,99737.66
2022-11-24T22:16:23.142Z,99754.41
2022-11-24T22:18:51.102Z,99737.69
2022-11-24T22:21:30.710Z,99754.22
2022-11-24T22:23:58.359Z,99758.63
2022-11-24T22:26:27.135Z,99764.47
2022-11-24T22:28:55.896Z,99761.66
2022-11-24T22:31:25.850Z,99764.50
2022-11-24T22:33:54.486Z,99766.88
2022-11-24T22:36:24.452Z,99771.06
2022-11-24T22:38:58.491Z,99771.56
2022-11-24T22:41:26.206Z,99768.53
2022-11-24T22:43:54.155Z,99776.56
2022-11-24T22:46:28.664Z,99777.59
2022-11-24T22:48:59.229Z,99779.25
2022-11-24T22:51:29.354Z,99782.13
2022-11-24T22:54:02.459Z,99782.13
2022-11-24T22:56:32.903Z,99780.59
2022-11-24T22:59:05.218Z,99775.22
2022-11-24T23:01:36.961Z,99784.94
2022-11-24T23:04:05.034Z,99781.25
2022-11-24T23:06:34.374Z,99790.97
2022-11-24T23:09:03.904Z,99789.97
2022-11-24T23:11:38.024Z,99790.78
2022-11-24T23:14:16.310Z,99788.31
2022-11-24T23:16:50.107Z,99798.72
2022-11-24T23:19:18.417Z,99790.13
2022-11-24T23:21:46.087Z,99784.63
2022-11-24T23:24:15.137Z,99795.53
2022-11-24T23:26:42.493Z,99794.00
2022-11-24T23:29:12.654Z,99793.97
2022-11-24T23:31:40.407Z,99791.00
2022-11-24T23:34:08.676Z,99787.28
2022-11-24T23:36:35.938Z,99795.66
2022-11-24T23:39:10.164Z,99803.38
2022-11-24T23:41:37.786Z,99782.94
2022-11-24T23:44:07.950Z,99799.03
2022-11-24T23:46:35.167Z,99801.88
2022-11-24T23:49:02.778Z,99796.50
2022-11-24T23:51:31.980Z,99799.34
2022-11-24T23:54:01.916Z,99809.09
2022-11-24T23:56:33.080Z,99787.31
2022-11-24T23:59:03.362Z,99807.41
